Time;durP1;ratioP1;P1;durP2;ratioP2;P2;SDS_P1;SDS_P2;PMS_P1;PMS_P2;Temp;Humidity;BMP_temperature;BMP_pressure;BME280_temperature;BME280_humidity;BME280_pressure;Samples;Min_cycle;Max_cycle;Signal;HPM_P1;HPM_P2
2021/12/10 00:01:27;;;;;;;5.68;4.47;;;;;;;4.59;84.83;98779.91;10307734;28;20077;-66
2021/12/10 00:06:35;;;;;;;8.68;3.97;;;;;;;4.53;85.38;98767.19;10291148;28;20072;-66
2021/12/10 00:11:42;;;;;;;5.35;3.63;;;;;;;4.52;85.14;98755.00;10313800;28;20599;-66
2021/12/10 00:16:44;;;;;;;6.88;3.80;;;;;;;4.40;85.81;98753.34;10307397;28;20365;-67
2021/12/10 00:21:47;;;;;;;7.18;3.75;;;;;;;4.36;85.72;98733.44;10290377;28;20050;-65
2021/12/10 00:26:48;;;;;;;5.88;3.72;;;;;;;4.39;85.96;98720.03;10290525;28;20109;-66
2021/12/10 00:32:00;;;;;;;6.80;3.92;;;;;;;4.47;85.63;98719.41;10306598;28;20057;-66
2021/12/10 00:37:06;;;;;;;4.65;3.60;;;;;;;4.48;85.72;98714.03;10291483;28;20044;-66
2021/12/10 00:42:16;;;;;;;5.68;3.50;;;;;;;4.56;84.89;98709.00;10316320;28;20164;-66
2021/12/10 00:47:17;;;;;;;8.27;3.88;;;;;;;4.54;84.94;98695.09;10325160;28;20052;-66
2021/12/10 00:52:20;;;;;;;7.60;3.72;;;;;;;4.55;84.96;98680.97;10314177;28;20076;-65
2021/12/10 00:57:22;;;;;;;6.97;3.50;;;;;;;4.49;85.85;98676.19;10296896;28;20560;-66
2021/12/10 01:02:24;;;;;;;6.18;3.85;;;;;;;4.55;85.50;98669.59;10313734;28;20125;-67
2021/12/10 01:07:31;;;;;;;9.65;4.00;;;;;;;4.54;85.17;98671.38;10312968;28;20414;-67
2021/12/10 01:12:40;;;;;;;7.80;3.58;;;;;;;4.48;85.72;98657.88;10321039;28;20420;-66
2021/12/10 01:28:26;;;;;;;5.95;3.58;;;;;;;4.44;85.67;98641.44;10314107;28;20042;-67
2021/12/10 01:33:28;;;;;;;8.27;3.50;;;;;;;4.59;85.64;98639.38;10315837;28;20050;-66
2021/12/10 01:38:31;;;;;;;7.72;4.35;;;;;;;4.62;84.71;98622.47;10312866;28;20080;-67
2021/12/10 01:43:36;;;;;;;5.88;3.65;;;;;;;4.60;85.13;98612.06;10312324;28;20138;-66
2021/12/10 01:48:43;;;;;;;10.10;3.85;;;;;;;4.72;84.99;98607.59;10312284;28;20129;-67
2021/12/10 01:53:47;;;;;;;8.07;4.78;;;;;;;4.67;84.27;98588.66;10296114;28;20134;-64
2021/12/10 01:58:50;;;;;;;7.40;4.00;;;;;;;4.72;84.38;98575.94;10311122;28;20056;-67
2021/12/10 02:03:53;;;;;;;8.80;3.40;;;;;;;4.74;84.11;98574.88;10311909;28;20050;-66
2021/12/10 02:08:55;;;;;;;6.38;3.50;;;;;;;4.85;83.23;98571.34;10310878;28;20053;-66
2021/12/10 02:13:57;;;;;;;7.50;3.97;;;;;;;4.88;82.76;98552.63;10317768;28;20038;-65
2021/12/10 02:18:58;;;;;;;9.18;3.75;;;;;;;4.85;82.82;98550.25;10310081;28;20130;-65
2021/12/10 02:24:01;;;;;;;8.52;3.65;;;;;;;4.89;82.58;98543.72;10293167;28;20046;-65
2021/12/10 02:29:04;;;;;;;8.02;3.25;;;;;;;4.84;82.02;98538.00;10293310;28;20088;-66
2021/12/10 02:34:06;;;;;;;6.80;3.80;;;;;;;4.86;81.95;98530.78;10292265;28;20505;-66
2021/12/10 02:39:18;;;;;;;8.27;3.75;;;;;;;4.87;81.94;98529.84;10310119;28;20137;-66
2021/12/10 02:44:23;;;;;;;8.95;3.85;;;;;;;4.79;81.16;98516.50;10312046;28;20052;-66
2021/12/10 02:49:25;;;;;;;11.13;3.75;;;;;;;4.89;81.34;98509.44;10302665;28;20112;-66
2021/12/10 02:54:36;;;;;;;8.13;2.92;;;;;;;4.97;80.15;98487.72;10309701;28;20125;-66
2021/12/10 02:59:38;;;;;;;5.20;2.60;;;;;;;4.90;79.53;98479.47;10291641;28;20042;-66
2021/12/10 03:04:41;;;;;;;9.88;3.88;;;;;;;4.94;79.17;98465.09;10310252;28;20126;-66
2021/12/10 03:09:47;;;;;;;7.47;2.65;;;;;;;4.85;78.43;98460.59;10293432;28;20100;-67
2021/12/10 03:14:53;;;;;;;8.93;4.00;;;;;;;4.88;78.41;98465.59;10315924;28;20415;-67
2021/12/10 03:19:55;;;;;;;4.43;2.30;;;;;;;4.87;78.41;98453.38;10291708;28;20550;-67
2021/12/10 03:24:58;;;;;;;6.50;2.65;;;;;;;4.89;78.15;98451.44;10308904;28;20057;-65
2021/12/10 03:30:00;;;;;;;6.55;2.15;;;;;;;4.82;78.13;98439.78;10307243;28;20129;-66
2021/12/10 03:35:12;;;;;;;5.05;2.08;;;;;;;4.93;78.88;98444.94;10291228;28;20081;-66
2021/12/10 03:40:16;;;;;;;6.03;2.45;;;;;;;5.02;78.01;98421.41;10289896;28;20141;-66
2021/12/10 03:45:18;;;;;;;7.57;2.65;;;;;;;4.99;77.28;98434.84;10307744;28;20054;-65
2021/12/10 03:50:26;;;;;;;6.18;2.90;;;;;;;4.93;77.06;98417.75;10307456;28;20057;-66
2021/12/10 03:55:28;;;;;;;5.75;2.50;;;;;;;4.83;77.40;98401.88;10290465;28;20416;-66
2021/12/10 04:00:38;;;;;;;8.07;2.10;;;;;;;4.74;77.18;98389.50;10308046;28;20066;-67
2021/12/10 04:05:45;;;;;;;6.82;1.80;;;;;;;4.64;77.68;98386.84;10305574;28;20058;-66
2021/12/10 04:10:47;;;;;;;6.40;1.95;;;;;;;4.63;78.00;98373.78;10296243;28;20124;-66
2021/12/10 04:15:49;;;;;;;5.47;2.40;;;;;;;4.50;77.83;98364.28;10318369;28;20133;-66
2021/12/10 04:20:50;;;;;;;9.18;2.35;;;;;;;4.45;78.13;98363.03;10316432;28;20230;-66
2021/12/10 04:25:52;;;;;;;5.07;2.58;;;;;;;4.38;78.07;98357.41;10316289;28;20046;-69
2021/12/10 04:30:54;;;;;;;7.03;2.08;;;;;;;4.39;78.60;98354.66;10315660;28;20070;-66
2021/12/10 04:35:59;;;;;;;5.50;2.35;;;;;;;4.32;78.85;98348.22;10315319;28;20055;-66
2021/12/10 04:41:03;;;;;;;5.70;2.92;;;;;;;4.17;79.49;98339.00;10315896;28;20050;-66
2021/12/10 04:46:05;;;;;;;6.23;2.73;;;;;;;4.12;79.75;98325.41;10314408;28;20050;-67
2021/12/10 04:51:07;;;;;;;8.88;2.88;;;;;;;4.10;80.00;98330.81;10314029;28;20066;-67
2021/12/10 04:56:08;;;;;;;7.03;3.72;;;;;;;4.02;79.87;98330.59;10313650;28;20050;-66
2021/12/10 05:01:10;;;;;;;8.43;3.85;;;;;;;4.00;80.18;98327.28;10296208;28;20050;-66
2021/12/10 05:06:12;;;;;;;7.78;3.20;;;;;;;4.10;79.77;98322.91;10295965;28;20050;-66
2021/12/10 05:11:14;;;;;;;8.35;2.83;;;;;;;4.07;79.87;98310.00;10320668;28;20136;-66
2021/12/10 05:16:18;;;;;;;8.00;3.55;;;;;;;3.95;79.99;98297.84;10295716;28;20527;-67
2021/12/10 05:21:19;;;;;;;6.72;2.88;;;;;;;3.88;80.57;98294.91;10312754;28;20039;-67
2021/12/10 05:26:21;;;;;;;5.95;3.38;;;;;;;3.81;80.75;98291.94;10311691;28;20053;-67
2021/12/10 05:31:22;;;;;;;7.47;3.70;;;;;;;3.67;80.68;98276.50;10312352;28;20050;-67
2021/12/10 05:36:24;;;;;;;7.50;2.95;;;;;;;3.61;80.24;98269.13;10310517;28;20127;-67
2021/12/10 05:41:26;;;;;;;10.48;3.85;;;;;;;3.59;79.93;98263.97;10314308;28;20062;-67
2021/12/10 05:46:27;;;;;;;6.60;3.58;;;;;;;3.53;80.31;98246.91;10313612;28;20125;-67
2021/12/10 05:51:29;;;;;;;6.00;2.70;;;;;;;3.58;80.24;98245.69;10313245;28;20412;-67
2021/12/10 05:56:30;;;;;;;8.73;3.35;;;;;;;3.65;79.67;98245.03;10311759;28;20140;-66
2021/12/10 06:01:33;;;;;;;8.43;3.13;;;;;;;3.49;78.91;98240.22;10289962;28;20054;-66
2021/12/10 06:06:35;;;;;;;7.10;3.22;;;;;;;3.48;78.95;98217.53;10289261;28;20141;-66
2021/12/10 06:11:37;;;;;;;5.40;3.10;;;;;;;3.58;78.87;98211.50;10281253;28;20129;-66
2021/12/10 06:16:38;;;;;;;9.45;3.20;;;;;;;3.56;78.66;98197.63;10290344;28;20059;-66
2021/12/10 06:21:40;;;;;;;5.15;3.63;;;;;;;3.60;78.98;98204.28;10275814;28;20054;-67
2021/12/10 06:26:42;;;;;;;8.10;3.83;;;;;;;3.54;78.53;98189.84;10272840;28;20062;-66
2021/12/10 06:31:43;;;;;;;7.38;3.85;;;;;;;3.52;78.68;98173.38;10290005;28;20077;-65
2021/12/10 06:36:45;;;;;;;5.25;3.40;;;;;;;3.53;78.34;98165.34;10287167;28;20053;-65
2021/12/10 06:41:51;;;;;;;7.78;3.72;;;;;;;3.52;78.68;98165.47;10289043;28;20054;-65
2021/12/10 06:46:52;;;;;;;8.80;4.53;;;;;;;3.46;78.66;98145.78;10289593;28;20616;-66
2021/12/10 06:51:54;;;;;;;8.77;3.95;;;;;;;3.47;78.44;98142.19;10291154;28;20144;-66
2021/12/10 06:56:57;;;;;;;6.15;4.97;;;;;;;3.46;78.18;98135.25;10289951;28;20058;-68
2021/12/10 07:02:00;;;;;;;4.70;3.38;;;;;;;3.50;78.33;98131.41;10292585;28;20137;-66
2021/12/10 07:07:02;;;;;;;9.02;4.25;;;;;;;3.47;78.30;98131.69;10292318;28;20050;-65
2021/12/10 07:12:06;;;;;;;7.72;3.67;;;;;;;3.48;78.51;98128.09;10291848;28;20074;-65
2021/12/10 07:17:07;;;;;;;9.52;3.55;;;;;;;3.52;78.46;98124.22;10291728;28;20062;-65
2021/12/10 07:22:09;;;;;;;7.05;4.18;;;;;;;3.48;77.51;98104.41;10293185;28;20061;-67
2021/12/10 07:27:12;;;;;;;8.50;3.63;;;;;;;3.38;77.67;98094.78;10283330;28;20112;-63
2021/12/10 07:32:13;;;;;;;6.95;4.10;;;;;;;3.40;77.50;98104.22;10291244;28;22256;-64
2021/12/10 07:37:15;;;;;;;9.18;4.45;;;;;;;3.41;77.53;98100.63;10294117;28;20046;-64
2021/12/10 07:42:17;;;;;;;7.25;4.20;;;;;;;3.40;77.26;98098.97;10291522;28;20049;-65
2021/12/10 07:47:20;;;;;;;7.43;4.07;;;;;;;3.49;77.28;98100.81;10284986;28;20042;-64
2021/12/10 07:52:26;;;;;;;5.90;3.33;;;;;;;3.41;76.96;98089.25;10293476;28;20064;-65
2021/12/10 07:57:29;;;;;;;5.05;3.45;;;;;;;3.42;76.39;98073.34;10290326;28;20050;-64
2021/12/10 08:02:30;;;;;;;9.27;4.20;;;;;;;3.29;76.36;98062.25;10285180;28;20112;-65
2021/12/10 08:07:32;;;;;;;7.15;4.65;;;;;;;3.30;76.50;98062.13;10289664;28;20046;-65
2021/12/10 08:12:33;;;;;;;7.13;3.60;;;;;;;3.39;75.73;98060.47;10282619;28;20078;-66
2021/12/10 08:17:35;;;;;;;8.50;3.42;;;;;;;3.37;75.52;98070.28;10284341;28;20509;-65
2021/12/10 08:22:37;;;;;;;8.43;4.07;;;;;;;3.39;74.97;98068.34;10292158;28;20052;-65
2021/12/10 08:27:38;;;;;;;7.03;3.65;;;;;;;3.36;75.37;98060.72;10281486;28;20456;-67
2021/12/10 08:32:41;;;;;;;7.82;4.00;;;;;;;3.44;75.47;98058.28;10290397;28;20060;-64
2021/12/10 08:37:42;;;;;;;4.90;3.67;;;;;;;3.52;75.08;98060.25;10290523;28;20065;-61
2021/12/10 08:42:44;;;;;;;7.80;2.95;;;;;;;3.69;74.26;98058.78;10292330;28;20137;-64
2021/12/10 08:47:47;;;;;;;4.63;3.08;;;;;;;3.74;73.23;98055.75;10293300;28;20688;-66
2021/12/10 08:52:54;;;;;;;5.78;3.75;;;;;;;3.82;73.29;98056.75;10292769;28;20462;-64
2021/12/10 08:57:56;;;;;;;6.40;3.53;;;;;;;3.86;71.69;98046.81;10291669;28;20464;-68
2021/12/10 09:02:58;;;;;;;7.82;3.45;;;;;;;3.84;70.75;98033.78;10294732;28;20046;-66
2021/12/10 09:08:00;;;;;;;5.22;3.25;;;;;;;3.92;70.88;98042.78;10294276;28;20088;-65
2021/12/10 09:13:04;;;;;;;6.18;3.35;;;;;;;3.92;70.42;98038.38;10297695;28;20060;-65
2021/12/10 09:18:08;;;;;;;4.13;3.33;;;;;;;4.13;70.55;98040.88;10297186;28;20050;-65
2021/12/10 09:23:13;;;;;;;7.00;2.90;;;;;;;4.30;69.80;98028.84;10300041;28;20128;-63
2021/12/10 09:28:15;;;;;;;7.30;3.65;;;;;;;4.31;69.18;98032.28;10300665;28;20068;-65
2021/12/10 09:33:16;;;;;;;7.85;3.10;;;;;;;4.31;68.94;98027.03;10288871;28;20132;-66
2021/12/10 09:38:20;;;;;;;8.13;3.60;;;;;;;4.28;68.27;98024.66;10296521;28;20545;-65
2021/12/10 09:43:22;;;;;;;5.95;3.13;;;;;;;4.37;68.20;98029.94;10296790;28;20069;-63
2021/12/10 09:48:24;;;;;;;3.90;2.55;;;;;;;4.62;67.09;98029.53;10290797;28;20050;-65
2021/12/10 09:53:28;;;;;;;4.38;2.30;;;;;;;4.94;65.45;98016.84;10297790;28;20063;-66
2021/12/10 09:58:30;;;;;;;4.93;2.85;;;;;;;5.24;64.85;98017.59;10292520;28;20124;-64
2021/12/10 10:03:35;;;;;;;5.10;2.50;;;;;;;5.52;63.70;98001.78;10291108;28;20070;-64
2021/12/10 10:08:37;;;;;;;4.95;2.22;;;;;;;5.52;63.18;97999.13;10294618;28;20133;-65
2021/12/10 10:13:42;;;;;;;7.10;2.90;;;;;;;5.51;62.98;97986.94;10291991;28;20124;-66
2021/12/10 10:18:44;;;;;;;;;;;;;;;5.45;63.84;97975.16;10291915;28;20050;-65
2021/12/10 10:23:46;;;;;;;4.38;2.30;;;;;;;5.60;62.78;97969.34;10291646;28;19996;-63
2021/12/10 10:28:48;;;;;;;5.63;2.33;;;;;;;5.71;62.31;97955.97;10295327;28;20244;-65
2021/12/10 10:33:52;;;;;;;5.63;3.33;;;;;;;5.81;61.70;97946.19;10292629;28;20054;-62
2021/12/10 10:39:09;;;;;;;5.60;3.33;;;;;;;5.95;61.43;97946.63;10292616;28;20042;-74
2021/12/10 10:44:17;;;;;;;6.80;3.28;;;;;;;5.94;60.41;97937.88;10293469;28;20105;-66
2021/12/10 10:49:39;;;;;;;6.38;3.33;;;;;;;6.05;60.06;97936.00;10292091;28;20145;-62
2021/12/10 10:54:41;;;;;;;4.57;2.90;;;;;;;5.97;60.10;97942.88;10291534;28;20046;-65
2021/12/10 10:59:43;;;;;;;5.47;2.85;;;;;;;6.08;60.16;97941.00;10279382;28;20137;-65
2021/12/10 11:04:49;;;;;;;6.68;2.95;;;;;;;6.08;60.81;97935.72;10291231;28;20480;-66
2021/12/10 11:10:02;;;;;;;5.65;2.55;;;;;;;6.03;59.59;97935.34;10293434;28;20141;-65
2021/12/10 11:15:14;;;;;;;4.63;3.03;;;;;;;6.23;59.75;97928.94;10290452;28;20046;-67
2021/12/10 11:20:27;;;;;;;6.68;3.08;;;;;;;6.12;59.34;97932.63;10290587;28;20156;-68
2021/12/10 11:25:42;;;;;;;5.20;3.05;;;;;;;6.17;59.12;97930.38;10284914;28;20497;-66
2021/12/10 11:30:49;;;;;;;6.43;2.13;;;;;;;6.07;58.53;97924.31;10289921;28;20053;-66
2021/12/10 11:35:54;;;;;;;6.00;3.38;;;;;;;6.10;59.13;97928.47;10291220;28;20068;-64
2021/12/10 11:41:00;;;;;;;6.82;3.45;;;;;;;5.99;58.99;97914.53;10292224;28;20618;-68
2021/12/10 11:51:20;;;;;;;4.82;3.13;;;;;;;5.64;59.25;97913.50;10288625;28;20058;-66
2021/12/10 11:56:27;;;;;;;7.20;4.03;;;;;;;5.53;59.70;97903.16;10276710;28;20058;-64
2021/12/10 12:01:28;;;;;;;6.70;2.92;;;;;;;5.35;59.35;97908.41;10278317;28;20042;-67
2021/12/10 12:06:30;;;;;;;6.38;3.38;;;;;;;5.22;59.81;97902.66;10286501;28;20061;-66
2021/12/10 12:11:31;;;;;;;6.10;3.03;;;;;;;5.14;60.40;97896.28;10283924;28;20084;-65
2021/12/10 12:16:35;;;;;;;4.45;3.22;;;;;;;5.08;60.44;97896.88;10289940;28;20120;-66
2021/12/10 12:21:37;;;;;;;4.80;3.37;;;;;;;5.07;60.95;97904.94;10288128;28;20046;-64
2021/12/10 12:26:41;;;;;;;4.63;2.90;;;;;;;5.12;60.40;97900.91;10287044;28;20558;-65
2021/12/10 12:32:11;;;;;;;6.82;3.13;;;;;;;5.19;61.05;97895.84;10285860;28;20492;-65
2021/12/10 12:37:14;;;;;;;8.10;2.75;;;;;;;5.18;60.67;97890.72;10298284;28;20057;-66
2021/12/10 12:42:45;;;;;;;7.57;3.88;;;;;;;5.18;60.46;97886.31;10301382;28;20655;-65
2021/12/10 12:47:50;;;;;;;5.72;3.20;;;;;;;5.26;60.71;97890.84;10294984;28;20054;-67
2021/12/10 12:53:21;;;;;;;6.45;3.25;;;;;;;5.25;60.19;97884.72;10294396;28;20508;-66
2021/12/10 12:58:32;;;;;;;4.93;3.33;;;;;;;5.25;59.64;97882.06;10295491;28;20565;-65
2021/12/10 13:04:09;;;;;;;10.50;3.92;;;;;;;5.26;60.43;97862.63;10285922;28;20046;-63
2021/12/10 13:09:40;;;;;;;5.60;3.53;;;;;;;5.32;60.06;97862.03;10291750;28;20050;-65
2021/12/10 13:14:58;;;;;;;5.32;3.58;;;;;;;5.32;59.67;97861.22;10295715;28;20531;-66
2021/12/10 13:20:05;;;;;;;4.82;2.65;;;;;;;5.29;59.33;97874.72;10293390;28;20101;-66
2021/12/10 13:25:11;;;;;;;5.85;3.00;;;;;;;5.38;59.70;97875.63;10285305;28;20285;-65
2021/12/10 13:30:23;;;;;;;6.97;3.60;;;;;;;5.30;59.62;97873.75;10294049;28;20544;-64
2021/12/10 13:35:28;;;;;;;7.03;4.13;;;;;;;5.24;59.29;97883.06;10292840;28;20421;-66
2021/12/10 13:40:32;;;;;;;9.45;4.22;;;;;;;5.14;59.59;97884.94;10294681;28;20416;-65
2021/12/10 13:45:39;;;;;;;8.10;3.92;;;;;;;5.08;59.81;97885.50;10290405;28;20100;-67
2021/12/10 13:50:53;;;;;;;8.30;4.70;;;;;;;5.10;59.01;97888.81;10293841;28;20046;-64
2021/12/10 13:55:57;;;;;;;5.75;3.65;;;;;;;5.15;59.48;97897.16;10290372;28;20077;-64
2021/12/10 14:01:04;;;;;;;6.13;4.50;;;;;;;5.18;59.99;97896.84;10299668;28;20146;-66
2021/12/10 14:06:07;;;;;;;6.50;4.30;;;;;;;5.07;59.52;97897.03;10297588;28;20058;-65
2021/12/10 14:11:23;;;;;;;5.90;4.28;;;;;;;5.01;59.89;97900.25;10293626;28;20054;-65
2021/12/10 14:16:52;;;;;;;6.00;4.40;;;;;;;4.89;59.97;97918.88;10291689;28;20594;-63
2021/12/10 14:22:16;;;;;;;7.90;4.60;;;;;;;4.87;60.23;97905.03;10290300;28;20184;-65
2021/12/10 14:27:48;;;;;;;7.18;4.47;;;;;;;4.76;60.75;97923.66;10286895;28;20740;-64
2021/12/10 14:33:16;;;;;;;7.55;5.38;;;;;;;4.77;60.95;97925.31;10286020;28;20061;-65
2021/12/10 14:38:29;;;;;;;5.30;4.80;;;;;;;4.79;61.63;97933.94;10282048;28;20126;-66
2021/12/10 14:43:41;;;;;;;8.07;4.55;;;;;;;4.55;64.20;97948.41;10290574;28;20081;-65
2021/12/10 14:49:04;;;;;;;5.95;4.10;;;;;;;4.39;65.75;97943.69;10290729;28;20661;-64
2021/12/10 14:54:26;;;;;;;5.80;4.60;;;;;;;4.29;67.90;97953.41;10284744;28;20443;-63
2021/12/10 14:59:47;;;;;;;7.38;4.65;;;;;;;4.29;69.37;97963.13;10286675;28;20046;-66
2021/12/10 15:05:13;;;;;;;6.18;4.50;;;;;;;4.34;69.69;97961.75;10289955;28;20058;-65
2021/12/10 15:10:42;;;;;;;5.45;4.22;;;;;;;4.33;70.61;97975.06;10286024;28;20057;-65
2021/12/10 15:16:28;;;;;;;5.88;4.95;;;;;;;4.28;71.26;97982.53;10289539;28;20061;-65
2021/12/10 15:21:40;;;;;;;6.85;4.70;;;;;;;4.15;72.43;97988.09;10287757;28;20042;-61
2021/12/10 15:27:02;;;;;;;6.18;4.05;;;;;;;4.15;73.27;97996.81;10289649;28;20066;-65
2021/12/10 15:32:07;;;;;;;6.50;4.28;;;;;;;4.20;73.58;97996.38;10282309;28;20089;-65
2021/12/10 15:37:31;;;;;;;5.80;4.28;;;;;;;4.26;73.64;98006.38;10276641;28;20138;-64
2021/12/10 15:42:37;;;;;;;7.32;4.45;;;;;;;4.21;74.01;98019.13;10291077;28;20148;-65
2021/12/10 15:47:42;;;;;;;6.78;5.05;;;;;;;4.22;74.22;98016.34;10288380;28;20056;-66
2021/12/10 15:52:44;;;;;;;9.32;6.68;;;;;;;4.26;74.86;98022.16;10291220;28;20105;-63
2021/12/10 15:57:47;;;;;;;8.93;7.00;;;;;;;4.13;75.09;98038.25;10280734;28;20921;-65
2021/12/10 16:02:50;;;;;;;8.52;7.53;;;;;;;4.13;75.67;98033.00;10288986;28;20054;-65
2021/12/10 16:07:55;;;;;;;7.45;6.00;;;;;;;4.23;75.49;98039.09;10292533;28;20850;-65
2021/12/10 16:13:00;;;;;;;6.95;5.57;;;;;;;4.28;75.35;98051.00;10299174;28;20401;-65
2021/12/10 16:18:05;;;;;;;7.57;6.65;;;;;;;4.19;75.81;98069.31;10297826;28;20528;-65
2021/12/10 16:23:11;;;;;;;8.73;6.80;;;;;;;4.21;75.69;98075.25;10295875;28;20062;-64
2021/12/10 16:28:13;;;;;;;9.18;7.35;;;;;;;4.23;75.43;98072.47;10297223;28;20042;-65
2021/12/10 16:33:19;;;;;;;6.97;6.22;;;;;;;4.21;75.55;98067.34;10296897;28;20172;-64
2021/12/10 16:38:26;;;;;;;10.20;7.55;;;;;;;4.19;75.68;98071.94;10295277;28;20754;-64
2021/12/10 16:43:27;;;;;;;8.50;7.00;;;;;;;4.20;75.69;98081.50;10283766;28;20128;-65
2021/12/10 16:48:32;;;;;;;7.13;6.45;;;;;;;4.21;75.98;98092.88;10283766;28;20066;-65
2021/12/10 16:54:03;;;;;;;10.35;8.30;;;;;;;4.13;76.04;98088.28;10293244;28;20125;-65
2021/12/10 16:59:05;;;;;;;8.68;6.88;;;;;;;4.17;76.54;98097.56;10273835;28;20427;-64
2021/12/10 17:04:11;;;;;;;9.73;6.32;;;;;;;4.18;76.12;98109.75;10282692;28;20145;-65
2021/12/10 17:09:16;;;;;;;7.25;6.53;;;;;;;4.20;76.39;98122.78;10287981;28;20058;-65
2021/12/10 17:14:30;;;;;;;9.97;6.87;;;;;;;4.20;76.60;98128.91;10283670;28;20046;-65
2021/12/10 17:19:40;;;;;;;11.73;7.60;;;;;;;4.16;76.34;98132.78;10282617;28;20078;-66
2021/12/10 17:24:45;;;;;;;10.63;7.70;;;;;;;4.13;76.70;98142.72;10310288;28;20542;-65
2021/12/10 17:29:52;;;;;;;14.57;12.15;;;;;;;4.06;76.86;98155.59;10307245;28;20544;-66
2021/12/10 17:35:01;;;;;;;35.45;32.22;;;;;;;4.04;76.98;98165.44;10309343;28;20096;-65
2021/12/10 17:40:11;;;;;;;14.65;13.25;;;;;;;4.09;77.27;98165.06;10310096;28;20497;-65
2021/12/10 17:45:18;;;;;;;13.88;12.45;;;;;;;4.10;77.08;98175.44;10312120;28;20058;-65
2021/12/10 17:50:28;;;;;;;13.07;11.88;;;;;;;4.10;77.31;98183.34;10311708;28;20053;-65
2021/12/10 17:55:35;;;;;;;13.60;12.07;;;;;;;4.08;77.54;98182.63;10311383;28;20478;-66
2021/12/10 18:00:59;;;;;;;13.43;9.98;;;;;;;4.15;77.50;98199.56;10292529;28;20109;-66
2021/12/10 18:06:02;;;;;;;18.43;16.53;;;;;;;4.10;77.55;98212.31;10294851;28;20054;-67
2021/12/10 18:11:09;;;;;;;11.52;10.13;;;;;;;4.11;77.41;98207.88;10307293;28;20046;-65
2021/12/10 18:16:15;;;;;;;15.75;13.93;;;;;;;4.11;77.55;98213.13;10311358;28;20080;-65
2021/12/10 18:21:25;;;;;;;10.93;9.65;;;;;;;4.11;77.40;98221.84;10309370;28;20533;-66
2021/12/10 18:26:44;;;;;;;11.95;9.60;;;;;;;4.16;77.44;98232.84;10291181;28;20050;-65
2021/12/10 18:31:48;;;;;;;12.10;10.48;;;;;;;4.21;77.73;98235.91;10306018;28;20134;-65
2021/12/10 18:36:50;;;;;;;16.63;12.15;;;;;;;4.18;77.37;98230.91;10306865;28;20129;-65
2021/12/10 18:42:10;;;;;;;15.88;14.20;;;;;;;4.11;77.67;98228.94;10308632;28;20129;-65
2021/12/10 18:47:12;;;;;;;13.27;10.98;;;;;;;4.22;77.84;98248.13;10309335;28;20042;-66
2021/12/10 18:52:23;;;;;;;18.50;14.07;;;;;;;4.30;77.80;98251.91;10309286;28;20377;-65
2021/12/10 18:57:36;;;;;;;15.65;12.57;;;;;;;4.30;77.33;98262.44;10309011;28;20501;-66
2021/12/10 19:02:42;;;;;;;11.95;10.77;;;;;;;4.21;77.77;98262.25;10307632;28;20504;-66
2021/12/10 19:07:51;;;;;;;15.80;13.38;;;;;;;4.20;77.66;98270.28;10306685;28;20108;-66
2021/12/10 19:12:57;;;;;;;12.27;11.05;;;;;;;4.19;77.48;98269.44;10292728;28;20050;-67
2021/12/10 19:18:07;;;;;;;11.68;10.48;;;;;;;4.32;77.79;98289.47;10308222;28;20129;-65
2021/12/10 19:23:15;;;;;;;12.35;11.10;;;;;;;4.30;77.54;98310.66;10308609;28;20064;-66
2021/12/10 19:28:25;;;;;;;16.15;13.27;;;;;;;4.28;77.99;98314.38;10294871;28;20073;-65
2021/12/10 19:33:35;;;;;;;11.65;9.85;;;;;;;4.20;77.62;98318.53;10312487;28;20053;-66
2021/12/10 19:38:48;;;;;;;11.73;10.48;;;;;;;4.27;77.94;98336.44;10299912;28;20054;-66
2021/12/10 19:44:00;;;;;;;10.48;9.32;;;;;;;4.29;77.59;98347.66;10284051;28;20070;-66
2021/12/10 19:49:12;;;;;;;11.88;10.35;;;;;;;4.34;77.76;98345.47;10314406;28;20484;-66
2021/12/10 19:54:27;;;;;;;11.40;10.10;;;;;;;4.37;77.38;98361.03;10310087;28;20134;-66
2021/12/10 19:59:34;;;;;;;11.75;10.63;;;;;;;4.36;77.75;98367.25;10300283;28;20050;-66
2021/12/10 20:04:42;;;;;;;12.55;9.88;;;;;;;4.38;77.60;98375.88;10294773;28;20117;-66
2021/12/10 20:09:51;;;;;;;11.68;9.50;;;;;;;4.42;77.31;98382.56;10309541;28;20174;-65
2021/12/10 20:15:16;;;;;;;12.75;11.07;;;;;;;4.44;77.27;98404.31;10312756;28;20141;-65
2021/12/10 20:20:40;;;;;;;11.95;10.18;;;;;;;4.43;77.21;98415.84;10285504;28;20105;-65
2021/12/10 20:25:47;;;;;;;12.15;10.95;;;;;;;4.48;77.07;98415.44;10290476;28;22998;-67
2021/12/10 20:31:27;;;;;;;12.07;10.77;;;;;;;4.49;77.34;98433.78;10286195;28;20235;-64
2021/12/10 20:36:46;;;;;;;14.45;12.95;;;;;;;4.53;77.00;98434.31;10288662;28;21079;-65
2021/12/10 20:42:01;;;;;;;14.23;12.80;;;;;;;4.43;77.42;98434.28;10286877;28;20553;-65
2021/12/10 20:47:11;;;;;;;13.52;11.35;;;;;;;4.59;76.91;98457.53;10306313;28;20058;-66
2021/12/10 20:52:20;;;;;;;12.95;11.55;;;;;;;4.63;77.07;98458.13;10293918;28;20054;-65
2021/12/10 20:57:27;;;;;;;14.60;12.95;;;;;;;4.58;76.94;98469.06;10292543;28;20061;-64
2021/12/10 21:02:45;;;;;;;16.42;13.60;;;;;;;4.59;77.31;98487.38;10292747;28;20100;-65
2021/12/10 21:07:50;;;;;;;14.65;12.95;;;;;;;4.60;76.78;98499.56;10291841;28;20126;-66
2021/12/10 21:12:53;;;;;;;;;;;;;;;4.60;76.66;98511.91;10295985;28;20128;-65
2021/12/10 21:18:19;;;;;;;16.33;13.07;;;;;;;4.58;77.00;98514.69;10292033;28;20016;-66
2021/12/10 21:23:30;;;;;;;15.45;13.70;;;;;;;4.63;76.85;98540.66;10309049;28;20050;-66
2021/12/10 21:28:57;;;;;;;17.15;14.93;;;;;;;4.64;77.48;98544.09;10290824;28;20038;-65
2021/12/10 21:34:04;;;;;;;18.10;15.80;;;;;;;4.65;77.21;98548.44;10308721;28;20412;-65
2021/12/10 21:39:08;;;;;;;18.50;15.90;;;;;;;4.68;77.11;98562.16;10289193;28;20117;-66
2021/12/10 21:44:17;;;;;;;22.23;17.58;;;;;;;4.73;77.25;98561.81;10309534;28;20654;-65
2021/12/10 21:49:22;;;;;;;17.77;15.75;;;;;;;4.73;76.96;98573.19;10291372;28;20161;-65
2021/12/10 21:54:29;;;;;;;16.45;14.30;;;;;;;4.75;76.89;98591.50;10309338;28;20113;-65
2021/12/10 21:59:45;;;;;;;18.42;15.15;;;;;;;4.75;76.78;98602.06;10308235;28;20128;-65
2021/12/10 22:04:51;;;;;;;17.88;15.25;;;;;;;4.72;76.99;98618.13;10307620;28;20129;-65
2021/12/10 22:10:02;;;;;;;17.58;15.07;;;;;;;4.73;76.82;98625.09;10292252;28;20050;-66
2021/12/10 22:15:17;;;;;;;17.73;15.15;;;;;;;4.71;76.95;98629.63;10282651;28;20137;-66
2021/12/10 22:20:23;;;;;;;18.55;16.63;;;;;;;4.81;77.05;98641.09;10296489;28;20054;-66
2021/12/10 22:25:40;;;;;;;17.02;15.25;;;;;;;4.77;76.76;98647.56;10274375;28;20077;-66
2021/12/10 22:30:47;;;;;;;18.73;15.57;;;;;;;4.75;76.92;98652.16;10279556;28;21301;-66
2021/12/10 22:36:18;;;;;;;21.55;16.88;;;;;;;4.71;77.34;98659.44;10275336;28;20047;-66
2021/12/10 22:41:20;;;;;;;20.08;14.68;;;;;;;4.76;77.14;98678.38;10280551;28;20093;-66
2021/12/10 22:46:28;;;;;;;18.38;15.23;;;;;;;4.79;77.12;98695.75;10284674;28;20133;-65
2021/12/10 22:51:35;;;;;;;17.30;13.93;;;;;;;4.78;77.47;98713.34;10283389;28;20447;-65
2021/12/10 22:56:44;;;;;;;18.58;15.07;;;;;;;4.85;76.96;98718.97;10284358;28;20536;-66
2021/12/10 23:01:45;;;;;;;19.52;16.50;;;;;;;4.89;76.74;98730.94;10272712;28;20070;-66
2021/12/10 23:06:53;;;;;;;16.75;14.02;;;;;;;4.80;76.60;98742.22;10278761;28;20492;-67
2021/12/10 23:12:09;;;;;;;19.30;14.45;;;;;;;4.83;76.87;98743.78;10275502;28;20047;-67
2021/12/10 23:17:26;;;;;;;19.05;14.57;;;;;;;4.82;77.49;98758.78;10267026;28;20051;-66
2021/12/10 23:22:27;;;;;;;19.25;16.25;;;;;;;4.88;76.69;98758.28;10279559;28;20046;-66
2021/12/10 23:27:46;;;;;;;17.50;15.65;;;;;;;4.89;76.77;98774.94;10277837;28;20054;-66
2021/12/10 23:33:11;;;;;;;18.15;15.93;;;;;;;4.84;76.85;98788.47;10288925;28;20169;-66
2021/12/10 23:38:19;;;;;;;21.73;17.40;;;;;;;4.80;77.03;98791.50;10303619;28;20081;-67
2021/12/10 23:43:23;;;;;;;23.83;16.58;;;;;;;4.72;77.16;98807.94;10307662;28;20068;-66
2021/12/10 23:48:42;;;;;;;16.60;14.37;;;;;;;4.75;77.41;98815.59;10309997;28;20560;-66
2021/12/10 23:53:44;;;;;;;22.02;18.10;;;;;;;4.78;77.30;98818.81;10332591;28;20054;-66
2021/12/10 23:59:05;;;;;;;25.00;18.27;;;;;;;4.74;77.35;98832.34;10305459;28;20582;-66
